createdAt,value
2023-02-15T00:00:07.014Z,9.10
2023-02-15T00:02:33.769Z,9.50
2023-02-15T00:05:00.356Z,9.10
2023-02-15T00:07:27.026Z,9.30
2023-02-15T00:09:53.614Z,10.50
2023-02-15T00:12:20.260Z,8.30
2023-02-15T00:14:46.952Z,8.00
2023-02-15T00:17:13.627Z,9.00
2023-02-15T00:19:41.055Z,8.30
2023-02-15T00:22:08.328Z,6.90
2023-02-15T00:24:34.956Z,5.00
2023-02-15T00:27:01.550Z,6.70
2023-02-15T00:29:29.203Z,8.60
2023-02-15T00:31:55.926Z,7.70
2023-02-15T00:34:27.674Z,3.50
2023-02-15T00:36:54.523Z,6.30
2023-02-15T00:39:21.477Z,8.00
2023-02-15T00:41:48.265Z,7.80
2023-02-15T00:44:16.001Z,6.80
2023-02-15T00:46:43.104Z,4.50
2023-02-15T00:49:10.509Z,6.20
2023-02-15T00:51:38.288Z,4.60
2023-02-15T00:54:06.336Z,8.00
2023-02-15T00:56:33.380Z,6.50
2023-02-15T00:59:00.143Z,4.10
2023-02-15T01:01:27.389Z,6.20
2023-02-15T01:03:54.737Z,7.50
2023-02-15T01:06:22.010Z,5.00
2023-02-15T01:08:49.229Z,4.40
2023-02-15T01:11:50.301Z,5.90
2023-02-15T01:14:10.528Z,6.10
2023-02-15T01:16:38.795Z,4.60
2023-02-15T01:19:06.963Z,7.10
2023-02-15T01:21:35.501Z,6.90
2023-02-15T01:24:03.880Z,7.60
2023-02-15T01:26:30.472Z,7.90
2023-02-15T01:28:58.752Z,7.50
2023-02-15T01:31:25.566Z,8.10
2023-02-15T01:33:52.264Z,7.40
2023-02-15T01:36:19.089Z,7.30
2023-02-15T01:38:46.799Z,7.80
2023-02-15T01:41:27.611Z,7.30
2023-02-15T01:44:01.420Z,7.40
2023-02-15T01:46:53.185Z,6.90
2023-02-15T01:49:24.801Z,6.90
2023-02-15T01:51:53.933Z,7.60
2023-02-15T01:54:33.957Z,8.10
2023-02-15T01:57:10.582Z,7.10
2023-02-15T01:59:41.244Z,6.80
2023-02-15T02:02:10.854Z,7.20
2023-02-15T02:04:51.044Z,6.50
2023-02-15T02:07:22.847Z,3.40
2023-02-15T02:09:50.148Z,4.10
2023-02-15T02:12:19.304Z,6.80
2023-02-15T02:14:48.431Z,6.60
2023-02-15T02:17:49.386Z,6.20
2023-02-15T02:20:49.804Z,3.20
2023-02-15T02:23:48.166Z,3.60
2023-02-15T02:26:55.426Z,5.10
2023-02-15T02:30:05.890Z,3.90
2023-02-15T02:33:14.263Z,3.00
2023-02-15T02:36:20.715Z,6.40
2023-02-15T02:39:22.477Z,4.90
2023-02-15T02:42:01.274Z,4.90
2023-02-15T02:45:00.590Z,5.00
2023-02-15T02:47:41.396Z,4.20
2023-02-15T02:50:19.397Z,5.00
2023-02-15T02:52:49.989Z,7.30
2023-02-15T02:55:36.053Z,5.50
2023-02-15T02:58:30.993Z,3.50
2023-02-15T03:01:06.737Z,5.50
2023-02-15T03:03:39.980Z,5.90
2023-02-15T03:06:20.517Z,4.60
2023-02-15T03:08:56.512Z,3.20
2023-02-15T03:11:23.216Z,6.40
2023-02-15T03:13:51.034Z,2.40
2023-02-15T03:16:26.829Z,2.90
2023-02-15T03:19:11.196Z,5.50
2023-02-15T03:21:59.042Z,4.90
2023-02-15T03:24:43.642Z,4.60
2023-02-15T03:27:27.478Z,3.80
2023-02-15T03:30:01.979Z,4.10
2023-02-15T03:32:33.962Z,4.70
2023-02-15T03:35:00.781Z,3.70
2023-02-15T03:37:36.571Z,4.20
2023-02-15T03:40:42.713Z,4.00
2023-02-15T03:43:37.846Z,7.00
2023-02-15T03:46:38.469Z,5.60
2023-02-15T03:49:12.294Z,5.00
2023-02-15T03:51:43.879Z,3.90
2023-02-15T03:54:45.088Z,3.40
2023-02-15T03:57:42.392Z,3.70
2023-02-15T04:00:41.840Z,5.20
2023-02-15T04:03:23.152Z,6.30
2023-02-15T04:05:50.119Z,5.30
2023-02-15T04:08:16.710Z,3.40
2023-02-15T04:10:57.230Z,3.50
2023-02-15T04:13:34.709Z,4.30
2023-02-15T04:16:05.015Z,6.30
2023-02-15T04:18:54.662Z,6.60
2023-02-15T04:21:42.634Z,5.00
2023-02-15T04:24:29.373Z,4.90
2023-02-15T04:26:59.374Z,5.20
2023-02-15T04:29:27.818Z,6.40
2023-02-15T04:31:57.830Z,6.90
2023-02-15T04:34:24.525Z,7.10
2023-02-15T04:36:51.357Z,7.00
2023-02-15T04:39:19.568Z,7.70
2023-02-15T04:41:46.873Z,7.40
2023-02-15T04:44:13.665Z,7.70
2023-02-15T04:46:40.219Z,7.40
2023-02-15T04:49:06.906Z,8.10
2023-02-15T04:51:33.531Z,7.80
2023-02-15T04:54:00.358Z,7.60
2023-02-15T04:56:26.921Z,7.80
2023-02-15T04:58:53.660Z,7.30
2023-02-15T05:01:20.290Z,8.50
2023-02-15T05:03:47.070Z,7.40
2023-02-15T05:06:13.707Z,7.20
2023-02-15T05:08:40.290Z,6.70
2023-02-15T05:11:06.856Z,8.20
2023-02-15T05:13:33.564Z,7.20
2023-02-15T05:16:00.621Z,7.60
2023-02-15T05:18:27.596Z,7.80
2023-02-15T05:20:54.229Z,7.00
2023-02-15T05:23:20.899Z,7.00
2023-02-15T05:26:10.497Z,6.70
2023-02-15T05:28:38.694Z,6.50
2023-02-15T05:31:18.419Z,6.50
2023-02-15T05:33:45.941Z,6.80
2023-02-15T05:36:13.216Z,6.50
2023-02-15T05:38:40.379Z,6.40
2023-02-15T05:41:08.905Z,6.10
2023-02-15T05:43:36.073Z,6.70
2023-02-15T05:46:04.469Z,5.00
2023-02-15T05:48:32.061Z,6.60
2023-02-15T05:51:10.112Z,6.50
2023-02-15T05:53:38.949Z,4.00
2023-02-15T05:56:08.753Z,6.20
2023-02-15T05:58:41.536Z,7.10
2023-02-15T06:01:10.174Z,7.00
2023-02-15T06:03:36.804Z,6.40
2023-02-15T06:06:05.484Z,7.20
2023-02-15T06:08:33.439Z,6.50
2023-02-15T06:11:00.251Z,7.00
2023-02-15T06:13:27.385Z,7.50
2023-02-15T06:15:54.173Z,6.20
2023-02-15T06:18:20.947Z,7.20
2023-02-15T06:20:48.355Z,7.00
2023-02-15T06:23:15.788Z,3.60
2023-02-15T06:25:44.020Z,5.70
2023-02-15T06:28:10.656Z,5.10
2023-02-15T06:30:37.434Z,7.30
2023-02-15T06:33:04.059Z,6.40
2023-02-15T06:35:30.737Z,7.40
2023-02-15T06:37:57.319Z,6.30
2023-02-15T06:40:23.969Z,6.20
2023-02-15T06:42:50.689Z,7.10
2023-02-15T06:45:17.486Z,4.10
2023-02-15T06:47:44.378Z,5.80
2023-02-15T06:50:11.949Z,4.40
2023-02-15T06:52:38.603Z,5.20
2023-02-15T06:55:06.234Z,6.60
2023-02-15T06:57:34.295Z,7.10
2023-02-15T07:00:01.108Z,6.90
2023-02-15T07:02:27.967Z,6.30
2023-02-15T07:04:54.753Z,18.90
2023-02-15T07:07:21.447Z,8.70
2023-02-15T07:09:48.225Z,7.40
2023-02-15T07:12:33.915Z,7.70
2023-02-15T07:15:00.730Z,7.00
2023-02-15T07:17:37.094Z,7.00
2023-02-15T07:20:08.912Z,7.70
2023-02-15T07:22:37.415Z,7.40
2023-02-15T07:25:09.483Z,5.70
2023-02-15T07:27:36.564Z,7.90
2023-02-15T07:30:04.814Z,8.20
2023-02-15T07:32:33.454Z,11.60
2023-02-15T07:35:00.796Z,9.70
2023-02-15T07:37:28.729Z,7.70
2023-02-15T07:39:55.361Z,8.50
2023-02-15T07:42:23.073Z,8.50
2023-02-15T07:44:50.218Z,4.10
2023-02-15T07:47:16.904Z,8.00
2023-02-15T07:49:43.543Z,7.60
2023-02-15T07:52:10.306Z,7.30
2023-02-15T07:54:36.869Z,8.90
2023-02-15T07:57:03.803Z,8.70
2023-02-15T07:59:30.500Z,9.90
2023-02-15T08:01:58.253Z,6.40
2023-02-15T08:04:25.136Z,8.70
2023-02-15T08:06:55.461Z,7.90
2023-02-15T08:09:22.834Z,8.20
2023-02-15T08:11:50.910Z,9.10
2023-02-15T08:14:23.199Z,9.20
2023-02-15T08:16:53.435Z,8.80
2023-02-15T08:19:21.616Z,8.90
2023-02-15T08:21:54.832Z,8.60
2023-02-15T08:24:24.688Z,9.10
2023-02-15T08:26:52.665Z,7.60
2023-02-15T08:29:25.801Z,8.40
2023-02-15T08:32:00.098Z,8.40
2023-02-15T08:34:26.927Z,8.20
2023-02-15T08:36:53.693Z,8.80
2023-02-15T08:39:20.471Z,8.60
2023-02-15T08:41:49.377Z,7.40
2023-02-15T08:44:19.307Z,7.50
2023-02-15T08:46:48.368Z,9.60
2023-02-15T08:49:20.298Z,11.20
2023-02-15T08:51:48.666Z,12.20
2023-02-15T08:54:19.277Z,9.20
2023-02-15T08:56:46.577Z,7.40
2023-02-15T08:59:20.442Z,9.10
2023-02-15T09:01:49.770Z,9.10
2023-02-15T09:04:17.125Z,6.90
2023-02-15T09:06:48.357Z,8.50
2023-02-15T09:09:17.376Z,8.50
2023-02-15T09:11:48.427Z,9.70
2023-02-15T09:14:25.441Z,8.70
2023-02-15T09:16:53.630Z,9.10
2023-02-15T09:19:22.961Z,8.30
2023-02-15T09:21:49.647Z,9.50
2023-02-15T09:24:18.617Z,9.00
2023-02-15T09:26:48.705Z,8.90
2023-02-15T09:29:16.530Z,9.40
2023-02-15T09:31:50.125Z,9.30
2023-02-15T09:34:22.581Z,9.10
2023-02-15T09:36:49.887Z,8.70
2023-02-15T09:39:18.614Z,11.20
2023-02-15T09:42:16.383Z,11.00
2023-02-15T09:45:27.979Z,9.40
2023-02-15T09:48:15.525Z,11.40
2023-02-15T09:51:20.861Z,10.10
2023-02-15T09:54:16.621Z,10.10
2023-02-15T09:56:51.194Z,8.70
2023-02-15T09:59:34.427Z,9.60
2023-02-15T10:02:29.599Z,6.80
2023-02-15T10:05:34.676Z,9.70
2023-02-15T10:08:28.546Z,11.80
2023-02-15T10:11:27.361Z,9.60
2023-02-15T10:14:38.918Z,8.60
2023-02-15T10:17:33.726Z,10.30
2023-02-15T10:20:12.049Z,9.60
2023-02-15T10:22:41.764Z,9.60
2023-02-15T10:25:42.339Z,9.80
2023-02-15T10:28:29.919Z,10.10
2023-02-15T10:31:18.322Z,9.50
2023-02-15T10:33:45.249Z,8.60
2023-02-15T10:36:33.756Z,9.80
2023-02-15T10:39:29.305Z,10.40
2023-02-15T10:42:33.334Z,7.60
2023-02-15T10:45:37.135Z,10.50
2023-02-15T10:48:53.584Z,10.90
2023-02-15T10:51:35.518Z,10.00
2023-02-15T10:54:57.317Z,9.50
2023-02-15T10:57:33.091Z,11.90
2023-02-15T11:00:30.050Z,10.20
2023-02-15T11:03:22.360Z,11.30
2023-02-15T11:06:06.125Z,11.10
2023-02-15T11:08:39.529Z,13.20
2023-02-15T11:11:16.376Z,12.70
2023-02-15T11:13:56.257Z,11.10
2023-02-15T11:16:55.496Z,12.10
2023-02-15T11:20:04.558Z,11.80
2023-02-15T11:22:34.504Z,10.10
2023-02-15T11:25:05.906Z,12.00
2023-02-15T11:27:36.509Z,11.20
2023-02-15T11:30:20.568Z,11.30
2023-02-15T11:32:52.481Z,10.40
2023-02-15T11:35:35.256Z,9.90
2023-02-15T11:38:17.575Z,11.00
2023-02-15T11:40:57.715Z,10.60
2023-02-15T11:43:35.180Z,10.90
2023-02-15T11:46:02.031Z,11.00
2023-02-15T11:48:31.896Z,13.10
2023-02-15T11:51:00.041Z,10.80
2023-02-15T11:53:34.181Z,9.90
2023-02-15T11:56:01.622Z,13.20
2023-02-15T11:58:39.009Z,13.20
2023-02-15T12:01:14.867Z,10.70
2023-02-15T12:03:53.846Z,14.00
2023-02-15T12:06:33.620Z,13.10
2023-02-15T12:09:25.886Z,13.40
2023-02-15T12:11:52.666Z,14.20
2023-02-15T12:14:19.350Z,11.70
2023-02-15T12:16:54.929Z,13.40
2023-02-15T12:19:41.718Z,12.50
2023-02-15T12:22:39.662Z,12.10
2023-02-15T12:25:42.882Z,10.40
2023-02-15T12:28:40.359Z,10.50
2023-02-15T12:31:41.077Z,11.90
2023-02-15T12:34:30.614Z,10.80
2023-02-15T12:37:03.293Z,12.20
2023-02-15T12:39:33.032Z,12.80
2023-02-15T12:42:06.083Z,8.80
2023-02-15T12:44:36.101Z,11.20
2023-02-15T12:47:17.752Z,10.10
2023-02-15T12:50:18.222Z,12.00
2023-02-15T12:52:49.387Z,10.20
2023-02-15T12:55:26.644Z,11.40
2023-02-15T12:58:08.512Z,12.00
2023-02-15T13:00:36.074Z,11.30
2023-02-15T13:03:04.338Z,12.30
2023-02-15T13:05:43.421Z,9.60
2023-02-15T13:08:16.045Z,11.20
2023-02-15T13:10:53.313Z,11.50
2023-02-15T13:13:25.014Z,9.80
2023-02-15T13:15:55.480Z,8.80
2023-02-15T13:18:45.985Z,8.70
2023-02-15T13:21:14.229Z,9.30
2023-02-15T13:23:49.475Z,7.90
2023-02-15T13:26:22.521Z,8.60
2023-02-15T13:28:57.266Z,9.80
2023-02-15T13:31:25.532Z,8.50
2023-02-15T13:33:58.297Z,9.60
2023-02-15T13:36:43.072Z,9.80
2023-02-15T13:39:16.957Z,9.80
2023-02-15T13:41:59.658Z,9.20
2023-02-15T13:44:54.697Z,8.70
2023-02-15T13:47:56.854Z,9.60
2023-02-15T13:51:01.719Z,9.40
2023-02-15T13:53:51.904Z,11.40
2023-02-15T13:56:40.037Z,7.60
2023-02-15T13:59:34.200Z,8.50
2023-02-15T14:02:13.073Z,10.10
2023-02-15T14:05:32.239Z,8.70
2023-02-15T14:08:26.690Z,9.40
2023-02-15T14:11:47.681Z,10.40
2023-02-15T14:14:58.308Z,8.00
2023-02-15T14:17:52.545Z,8.10
2023-02-15T14:20:37.909Z,8.70
2023-02-15T14:23:41.076Z,9.00
2023-02-15T14:26:43.955Z,9.70
2023-02-15T14:29:38.895Z,10.90
2023-02-15T14:32:14.872Z,9.60
2023-02-15T14:34:56.454Z,9.70
2023-02-15T14:37:36.054Z,7.90
2023-02-15T14:40:28.255Z,7.40
2023-02-15T14:43:23.004Z,8.30
2023-02-15T14:46:18.439Z,9.30
2023-02-15T14:49:26.781Z,10.00
2023-02-15T14:52:00.324Z,9.20
2023-02-15T14:54:26.917Z,7.40
2023-02-15T14:57:02.907Z,9.30
2023-02-15T15:00:01.042Z,8.20
2023-02-15T15:02:49.718Z,8.80
2023-02-15T15:05:37.426Z,8.20
2023-02-15T15:08:06.456Z,7.70
2023-02-15T15:10:41.239Z,9.10
2023-02-15T15:13:32.545Z,9.00
2023-02-15T15:16:26.775Z,8.60
2023-02-15T15:18:53.567Z,8.00
2023-02-15T15:21:51.428Z,7.60
2023-02-15T15:24:39.756Z,8.30
2023-02-15T15:27:46.786Z,7.80
2023-02-15T15:30:19.918Z,8.40
2023-02-15T15:32:58.830Z,9.70
2023-02-15T15:35:56.736Z,8.30
2023-02-15T15:39:10.513Z,8.10
2023-02-15T15:41:49.953Z,8.30
2023-02-15T15:45:12.746Z,7.70
2023-02-15T15:48:07.016Z,7.70
2023-02-15T15:50:34.905Z,8.20
2023-02-15T15:53:03.590Z,8.80
2023-02-15T15:55:35.931Z,8.70
2023-02-15T15:58:07.243Z,8.50
2023-02-15T16:00:50.555Z,9.50
2023-02-15T16:03:27.152Z,9.70
2023-02-15T16:06:01.401Z,8.10
2023-02-15T16:08:36.950Z,9.60
2023-02-15T16:11:15.607Z,9.10
2023-02-15T16:13:43.855Z,8.90
2023-02-15T16:16:14.130Z,8.50
2023-02-15T16:18:43.378Z,8.20
2023-02-15T16:21:21.345Z,9.10
2023-02-15T16:24:12.321Z,9.50
2023-02-15T16:27:28.046Z,8.90
2023-02-15T16:29:54.647Z,8.80
2023-02-15T16:32:28.339Z,9.30
2023-02-15T16:35:04.060Z,9.30
2023-02-15T16:37:37.599Z,9.40
2023-02-15T16:40:05.723Z,8.60
2023-02-15T16:42:32.307Z,10.70
2023-02-15T16:45:08.889Z,9.60
2023-02-15T16:47:48.165Z,8.70
2023-02-15T16:50:37.759Z,9.00
2023-02-15T16:53:08.411Z,9.50
2023-02-15T16:55:43.253Z,7.30
2023-02-15T16:58:17.314Z,8.10
2023-02-15T17:00:45.114Z,9.70
2023-02-15T17:03:14.839Z,9.40
2023-02-15T17:05:48.853Z,8.40
2023-02-15T17:08:18.222Z,9.10
2023-02-15T17:11:02.526Z,11.60
2023-02-15T17:13:30.126Z,10.70
2023-02-15T17:16:00.305Z,11.30
2023-02-15T17:18:45.455Z,11.80
2023-02-15T17:21:20.743Z,8.40
2023-02-15T17:23:52.997Z,9.10
2023-02-15T17:26:23.367Z,12.10
2023-02-15T17:29:00.479Z,11.90
2023-02-15T17:31:33.262Z,11.10
2023-02-15T17:34:01.490Z,12.40
2023-02-15T17:36:31.355Z,10.40
2023-02-15T17:38:58.019Z,12.00
2023-02-15T17:41:31.429Z,12.90
2023-02-15T17:43:58.673Z,15.90
2023-02-15T17:46:26.430Z,9.10
2023-02-15T17:48:56.408Z,11.20
2023-02-15T17:51:24.024Z,9.60
2023-02-15T17:54:09.520Z,8.80
2023-02-15T17:56:38.675Z,11.20
2023-02-15T17:59:07.881Z,11.00
2023-02-15T18:02:07.357Z,13.20
2023-02-15T18:04:56.454Z,7.90
2023-02-15T18:07:42.256Z,9.40
2023-02-15T18:10:37.645Z,8.60
2023-02-15T18:13:04.483Z,8.80
2023-02-15T18:15:31.215Z,10.40
2023-02-15T18:17:57.952Z,8.30
2023-02-15T18:20:36.814Z,9.70
2023-02-15T18:23:03.607Z,9.70
2023-02-15T18:25:30.215Z,8.50
2023-02-15T18:27:57.019Z,10.20
2023-02-15T18:30:27.530Z,10.70
2023-02-15T18:32:57.110Z,11.40
2023-02-15T18:35:30.623Z,9.20
2023-02-15T18:37:59.390Z,8.50
2023-02-15T18:40:27.887Z,9.50
2023-02-15T18:42:57.203Z,10.40
2023-02-15T18:45:28.730Z,10.10
2023-02-15T18:47:55.505Z,10.20
2023-02-15T18:50:23.828Z,11.30
2023-02-15T18:52:51.657Z,12.90
2023-02-15T18:55:27.893Z,11.90
2023-02-15T18:57:57.231Z,13.00
2023-02-15T19:00:34.722Z,13.80
2023-02-15T19:03:02.825Z,12.60
2023-02-15T19:05:31.250Z,12.80
2023-02-15T19:08:00.017Z,13.60
2023-02-15T19:10:30.582Z,14.00
2023-02-15T19:12:57.723Z,14.60
2023-02-15T19:15:27.730Z,14.40
2023-02-15T19:17:54.991Z,14.90
2023-02-15T19:20:32.378Z,14.90
2023-02-15T19:23:01.287Z,14.00
2023-02-15T19:25:31.601Z,14.40
2023-02-15T19:27:58.708Z,15.00
2023-02-15T19:30:31.278Z,15.00
2023-02-15T19:32:59.232Z,13.70
2023-02-15T19:35:35.673Z,15.10
2023-02-15T19:38:07.531Z,14.60
2023-02-15T19:40:36.327Z,14.50
2023-02-15T19:43:04.492Z,13.70
2023-02-15T19:45:32.948Z,14.60
2023-02-15T19:48:02.511Z,12.20
2023-02-15T19:50:32.172Z,12.50
2023-02-15T19:52:59.499Z,12.60
2023-02-15T19:55:28.623Z,13.60
2023-02-15T19:57:58.124Z,12.50
2023-02-15T20:00:29.726Z,13.60
2023-02-15T20:03:00.160Z,13.40
2023-02-15T20:05:29.472Z,12.90
2023-02-15T20:07:56.953Z,16.60
2023-02-15T20:10:28.088Z,13.80
2023-02-15T20:12:55.457Z,13.70
2023-02-15T20:15:27.218Z,14.80
2023-02-15T20:17:54.351Z,14.50
2023-02-15T20:20:23.286Z,14.60
2023-02-15T20:22:51.938Z,14.00
2023-02-15T20:25:31.153Z,14.10
2023-02-15T20:27:59.494Z,14.10
2023-02-15T20:30:32.709Z,13.20
2023-02-15T20:32:59.425Z,12.90
2023-02-15T20:35:28.897Z,12.80
2023-02-15T20:38:00.479Z,12.00
2023-02-15T20:40:33.491Z,12.60
2023-02-15T20:43:01.276Z,12.70
2023-02-15T20:45:32.014Z,14.00
2023-02-15T20:48:01.888Z,13.10
2023-02-15T20:50:32.262Z,12.80
2023-02-15T20:53:02.538Z,13.80
2023-02-15T20:55:32.067Z,13.60
2023-02-15T20:57:59.632Z,11.90
2023-02-15T21:00:30.705Z,13.60
2023-02-15T21:03:00.672Z,14.00
2023-02-15T21:05:33.486Z,8.90
2023-02-15T21:08:00.158Z,10.60
2023-02-15T21:10:30.728Z,9.50
2023-02-15T21:13:00.204Z,9.70
2023-02-15T21:15:41.163Z,12.50
2023-02-15T21:18:20.216Z,15.10
2023-02-15T21:20:52.273Z,13.30
2023-02-15T21:23:24.117Z,14.40
2023-02-15T21:25:50.870Z,14.70
2023-02-15T21:28:23.133Z,13.70
2023-02-15T21:30:51.490Z,14.40
2023-02-15T21:33:18.596Z,13.50
2023-02-15T21:35:49.775Z,12.60
2023-02-15T21:38:20.936Z,12.70
2023-02-15T21:40:49.089Z,13.10
2023-02-15T21:43:39.441Z,13.40
2023-02-15T21:46:56.976Z,13.10
2023-02-15T21:49:23.582Z,12.90
2023-02-15T21:52:19.426Z,14.80
2023-02-15T21:54:46.206Z,14.60
2023-02-15T21:57:17.461Z,15.00
2023-02-15T21:59:44.518Z,14.10
2023-02-15T22:02:29.834Z,14.20
2023-02-15T22:04:58.576Z,14.10
2023-02-15T22:07:25.129Z,12.20
2023-02-15T22:09:51.686Z,14.20
2023-02-15T22:12:19.518Z,14.00
2023-02-15T22:14:54.798Z,14.70
2023-02-15T22:17:25.616Z,14.00
2023-02-15T22:19:52.772Z,14.00
2023-02-15T22:22:19.431Z,14.10
2023-02-15T22:24:47.008Z,13.20
2023-02-15T22:27:26.102Z,13.30
2023-02-15T22:29:54.123Z,12.60
2023-02-15T22:32:26.360Z,13.20
2023-02-15T22:34:56.862Z,11.40
2023-02-15T22:37:23.539Z,12.90
2023-02-15T22:39:50.126Z,12.40
2023-02-15T22:42:27.460Z,11.70
2023-02-15T22:44:57.082Z,12.20
2023-02-15T22:47:28.163Z,12.40
2023-02-15T22:49:55.097Z,11.40
2023-02-15T22:52:22.396Z,12.80
2023-02-15T22:54:49.025Z,12.30
2023-02-15T22:57:25.708Z,11.40
2023-02-15T22:59:52.282Z,11.80
2023-02-15T23:02:18.804Z,11.40
2023-02-15T23:04:45.424Z,11.10
2023-02-15T23:07:19.114Z,11.00
2023-02-15T23:09:46.373Z,10.80
2023-02-15T23:12:27.405Z,11.30
2023-02-15T23:14:54.564Z,10.90
2023-02-15T23:17:21.543Z,11.40
2023-02-15T23:19:48.184Z,10.50
2023-02-15T23:22:16.908Z,10.90
2023-02-15T23:24:51.973Z,10.90
2023-02-15T23:27:37.680Z,10.90
2023-02-15T23:30:15.165Z,10.80
2023-02-15T23:32:41.826Z,10.70
2023-02-15T23:35:17.328Z,9.70
2023-02-15T23:37:44.007Z,10.50
2023-02-15T23:40:37.579Z,10.40
2023-02-15T23:43:05.659Z,9.60
2023-02-15T23:45:37.123Z,9.90
2023-02-15T23:48:22.919Z,10.30
2023-02-15T23:50:49.533Z,10.40
2023-02-15T23:53:16.074Z,10.10
2023-02-15T23:55:45.628Z,10.40
2023-02-15T23:58:18.341Z,9.90
